Latest Weather Observations for Cape Grim

IDT60801

Issued at 3:31 pm EST Monday 27 April 2015 (issued every 30 minutes, with the page automatically refreshed every 10 minutes)

About weather observations | Map of weather stations | Latest weather observations for TAS | Other Formats
Station Details ID: 091331 Name: CAPE GRIM Lat: -40.68 Lon: 144.69 Height: 86.0 m
Data from the previous 72 hours. | See also: Recent months at Cape Grim
Date/Time
EST
Temp
°C
App
Temp
°C
Dew
Point
Rel
Hum
%
Delta-T
°C
Wind Press
QNH
hPa
Press
MSL
hPa
Rain
since 9 am
mm
Dir
 
Spd
km/h
Gust
km/h
Spd
kts
Gust
kts
27/03:30pm 12.5 5.7 7.6 72 2.4 SW 33 48 18 26 1021.3 1021.2 0.0
27/03:00pm 12.0 4.8 7.7 75 2.1 SW 35 50 19 27 1021.4 1021.4 0.0
27/02:40pm 12.8 6.0 7.9 72 2.4 SW 33 52 18 28 1021.3 1021.2 0.0
27/02:30pm 12.9 6.3 7.6 70 2.6 SSW 32 44 17 24 1021.3 1021.2 0.0
27/02:00pm 13.0 6.4 7.7 70 2.6 SW 32 43 17 23 1021.1 1021.0 0.0
27/01:30pm 12.3 5.6 7.4 72 2.4 SW 32 43 17 23 1021.1 1021.0 0.0
27/01:00pm 12.8 6.0 7.5 70 2.6 SW 33 46 18 25 1021.1 1021.0 0.0
27/12:30pm 12.5 5.6 7.2 70 2.6 SW 33 48 18 26 1021.4 1021.4 0.0
27/12:00pm 12.7 5.7 7.0 68 2.7 SW 33 43 18 23 1021.5 1021.5 0.0
27/11:30am 12.9 6.6 7.6 70 2.6 SSW 30 41 16 22 1021.6 1021.6 0.0
27/11:00am 11.8 4.6 7.5 75 2.1 SSW 35 48 19 26 1021.5 1021.5 0.0
27/10:30am 12.6 6.1 8.3 75 2.1 SSW 32 41 17 22 1021.4 1021.4 0.0
27/10:00am 11.6 4.8 7.7 77 1.9 SSW 33 44 18 24 1021.0 1020.9 0.0
27/09:30am 11.9 3.9 7.6 75 2.1 SW 39 52 21 28 1020.7 1020.6 0.0
27/09:00am 10.9 4.1 7.8 81 1.5 SW 33 50 18 27 1020.7 1020.6 1.2
27/08:30am 11.6 3.7 7.7 77 1.9 SW 39 48 21 26 1020.4 1020.3 1.2
27/08:00am 11.2 2.4 7.3 77 1.9 SW 43 57 23 31 1020.2 1020.1 1.2
27/07:30am 11.0 4.2 7.5 79 1.7 SSW 33 44 18 24 1019.9 1019.8 1.2
27/07:00am 11.3 2.7 6.6 73 2.2 SW 41 52 22 28 1019.6 1019.5 1.2
27/06:30am 11.2 3.5 7.3 77 1.9 SW 37 50 20 27 1019.3 1019.2 1.2
27/06:19am 11.2 3.9 7.3 77 1.9 SW 35 54 19 29 1019.2 1019.1 1.2
27/06:00am 11.2 3.1 7.1 76 2.0 SW 39 50 21 27 1019.1 1019.0 1.2
27/05:30am 11.4 2.7 7.5 77 1.9 SW 43 54 23 29 1019.0 1018.9 1.2
27/05:00am 11.8 3.4 7.3 74 2.2 SW 41 50 22 27 1018.8 1018.7 1.2
27/04:45am 11.2 4.5 7.3 77 1.9 SSW 32 50 17 27 1018.8 1018.7 1.2
27/04:30am 11.4 4.2 7.5 77 1.9 SW 35 48 19 26 1018.7 1018.6 1.2
27/04:00am 11.2 2.6 6.7 74 2.1 SW 41 54 22 29 1018.6 1018.5 1.2
27/03:30am 11.3 2.8 7.0 75 2.1 SW 41 50 22 27 1018.4 1018.3 1.2
27/03:00am 11.4 3.0 7.5 77 1.9 SW 41 54 22 29 1018.5 1018.4 1.2
27/02:30am 11.3 5.5 8.0 80 1.6 SW 28 46 15 25 1018.4 1018.3 1.2
27/02:27am 11.2 5.0 7.9 80 1.6 SW 30 48 16 26 1018.3 1018.2 1.2
27/02:00am 11.4 3.6 6.5 72 2.3 SW 37 48 20 26 1018.4 1018.3 1.2
27/01:30am 11.0 4.2 7.5 79 1.7 SSW 33 50 18 27 1018.4 1018.3 1.2
27/01:00am 11.1 2.4 6.0 71 2.4 SW 41 52 22 28 1018.3 1018.2 1.2
27/12:42am 11.4 3.9 7.9 79 1.7 SW 37 57 20 31 1018.3 1018.2 1.2
27/12:30am 10.5 3.8 8.1 85 1.2 SSW 33 46 18 25 1018.5 1018.4 1.2
27/12:00am 11.0 4.2 7.7 80 1.6 SSW 33 50 18 27 1018.4 1018.3 1.2
 
Date/Time
EST
Temp
°C
App
Temp
°C
Dew
Point
Rel
Hum
%
Delta-T
°C
Wind Press
QNH
hPa
Press
MSL
hPa
Rain
since 9 am
mm
Dir
 
Spd
km/h
Gust
km/h
Spd
kts
Gust
kts
26/11:30pm 11.1 4.8 7.6 79 1.7 SSW 30 46 16 25 1018.4 1018.3 1.2
26/11:00pm 10.6 3.1 7.8 83 1.4 SSW 37 50 20 27 1018.4 1018.3 1.0
26/10:31pm 11.4 4.6 7.5 77 1.9 SSW 33 52 18 28 1018.3 1018.2 1.0
26/10:30pm 11.4 4.2 7.5 77 1.9 SSW 35 52 19 28 1018.4 1018.3 1.0
26/10:00pm 11.5 3.3 6.6 72 2.3 SW 39 57 21 31 1018.2 1018.1 1.0
26/09:57pm 11.2 3.4 6.7 74 2.1 SW 37 57 20 31 1018.1 1018.0 1.0
26/09:30pm 11.2 3.8 6.9 75 2.1 SW 35 52 19 28 1018.1 1018.0 1.0
26/09:08pm 11.6 4.3 7.3 75 2.1 SSW 35 54 19 29 1018.0 1017.9 1.0
26/09:00pm 11.3 3.4 7.8 79 1.7 SSW 39 52 21 28 1017.9 1017.8 1.0
26/08:30pm 11.7 2.1 6.2 69 2.6 SW 46 61 25 33 1017.5 1017.5 1.0
26/08:00pm 11.4 2.4 6.5 72 2.3 SW 43 65 23 35 1017.3 1017.3 1.0
26/07:51pm 12.0 3.3 7.7 75 2.1 SW 43 65 23 35 1017.1 1017.1 1.0
26/07:30pm 11.7 2.9 7.2 74 2.2 SW 43 57 23 31 1017.1 1017.1 1.0
26/07:00pm 12.0 2.3 7.5 74 2.2 SW 48 67 26 36 1016.8 1016.8 1.0
26/06:37pm 11.7 2.2 8.4 80 1.6 SW 48 67 26 36 1016.6 1016.6 1.0
26/06:30pm 11.3 1.0 8.2 81 1.5 SW 52 67 28 36 1016.6 1016.6 1.0
26/06:00pm 10.5 1.3 7.9 84 1.3 SW 46 69 25 37 1016.2 1016.2 1.0
26/05:30pm 11.5 2.6 9.2 86 1.2 SW 46 67 25 36 1015.8 1015.8 0.8
26/05:00pm 11.9 2.9 8.7 81 1.6 SW 46 65 25 35 1015.4 1015.4 0.8
26/04:44pm 12.0 4.8 9.0 82 1.5 SW 37 72 20 39 1015.4 1015.4 0.6
26/04:36pm 12.0 5.2 9.2 83 1.4 SW 35 54 19 29 1015.5 1015.5 0.6
26/04:30pm 11.8 4.2 9.0 83 1.4 SW 39 56 21 30 1015.6 1015.6 0.6
26/04:24pm 11.8 3.9 9.2 84 1.3 SW 41 56 22 30 1015.6 1015.6 0.6
26/04:08pm 11.7 3.5 8.2 79 1.7 SW 41 63 22 34 1015.4 1015.4 0.6
26/04:00pm 12.7 6.1 8.6 76 2.1 SW 33 54 18 29 1015.4 1015.4 0.4
26/03:30pm 12.4 6.4 8.5 77 1.9 WSW 30 52 16 28 1015.3 1015.3 0.4
26/03:15pm 12.5 4.9 9.0 79 1.8 WSW 39 57 21 31 1015.2 1015.2 0.4
26/03:14pm 12.6 5.0 9.2 80 1.7 WSW 39 57 21 31 1015.2 1015.2 0.4
26/03:01pm 12.5 4.9 7.4 71 2.5 WSW 37 56 20 30 1015.2 1015.2 0.4
26/03:00pm 12.8 5.3 7.9 72 2.4 WSW 37 52 20 28 1015.2 1015.2 0.4
26/02:38pm 12.7 5.8 7.4 70 2.6 WSW 33 57 18 31 1015.3 1015.3 0.4
26/02:30pm 13.0 5.9 8.1 72 2.4 SW 35 50 19 27 1015.4 1015.4 0.4
26/02:00pm 13.1 4.5 6.7 65 3.1 SW 41 61 22 33 1015.2 1015.2 0.4
26/01:30pm 11.9 3.7 8.2 78 1.8 SW 41 65 22 35 1015.2 1015.2 0.4
26/01:27pm 12.7 4.7 7.6 71 2.5 SW 39 59 21 32 1015.3 1015.3 0.4
26/01:00pm 12.6 4.3 7.7 72 2.4 SW 41 52 22 28 1015.4 1015.4 0.4
26/12:53pm 12.6 4.7 7.7 72 2.4 SW 39 57 21 31 1015.4 1015.4 0.4
26/12:30pm 12.6 3.1 6.6 67 2.9 SW 46 59 25 32 1015.5 1015.5 0.4
26/12:00pm 11.5 2.5 8.7 83 1.4 SW 46 65 25 35 1015.5 1015.5 0.4
26/11:51am 12.8 5.0 8.3 74 2.2 SW 39 57 21 31 1015.6 1015.6 0.4
26/11:30am 12.1 4.6 8.0 76 2.0 SW 37 54 20 29 1015.9 1015.9 0.4
26/11:06am 11.5 3.2 7.8 78 1.8 SW 41 61 22 33 1015.9 1015.9 0.4
26/11:00am 11.7 4.9 9.4 86 1.2 SW 35 46 19 25 1016.0 1016.0 0.4
26/10:30am 11.3 2.8 7.0 75 2.1 SW 41 67 22 36 1015.8 1015.8 0.0
26/10:00am 12.2 5.1 7.9 75 2.1 SW 35 48 19 26 1015.9 1015.9 0.0
26/09:30am 11.7 3.3 5.8 67 2.8 SW 39 52 21 28 1015.9 1015.9 0.0
26/09:00am 11.6 4.1 6.3 70 2.5 SW 35 48 19 26 1016.0 1016.0 0.0
26/08:30am 11.0 2.4 6.6 74 2.1 SW 41 50 22 27 1016.0 1016.0 0.0
26/08:00am 10.4 1.2 7.8 84 1.3 SW 46 61 25 33 1015.8 1015.8 0.0
26/07:30am 11.0 2.4 6.6 74 2.1 SW 41 61 22 33 1015.5 1015.5 0.0
26/07:24am 10.7 2.3 5.7 71 2.3 SSW 39 61 21 33 1015.3 1015.3 0.0
26/07:00am 11.2 2.3 5.3 67 2.7 SW 41 56 22 30 1015.0 1015.0 0.0
26/06:45am 10.8 0.7 5.8 71 2.3 SW 48 67 26 36 1014.9 1014.9 0.0
26/06:30am 11.0 0.5 5.7 70 2.5 SW 50 65 27 35 1014.8 1014.8 0.0
26/06:00am 11.2 1.9 6.1 71 2.4 SW 44 57 24 31 1014.5 1014.5 0.0
26/05:30am 10.9 2.6 6.1 72 2.2 SW 39 61 21 33 1014.4 1014.4 0.0
26/05:22am 10.9 2.6 6.1 72 2.2 SW 39 61 21 33 1014.4 1014.4 0.0
26/05:00am 11.1 1.8 5.8 70 2.5 SW 44 59 24 32 1014.2 1014.2 0.0
26/04:31am 10.9 2.4 5.2 68 2.6 SSW 39 57 21 31 1014.1 1014.1 0.0
26/04:30am 10.9 2.5 5.4 69 2.5 SSW 39 54 21 29 1014.0 1014.0 0.0
26/04:03am 10.8 2.2 4.7 66 2.8 SSW 39 57 21 31 1014.2 1014.2 0.0
26/04:00am 11.0 2.1 5.1 67 2.7 SSW 41 57 22 31 1014.1 1014.1 0.0
26/03:57am 10.9 2.4 5.0 67 2.7 SSW 39 57 21 31 1014.1 1014.1 0.0
26/03:30am 10.7 2.5 4.6 66 2.8 SSW 37 52 20 28 1014.0 1014.0 0.0
26/03:00am 10.5 1.8 4.0 64 2.9 SSW 39 54 21 29 1014.1 1014.1 0.0
26/02:30am 10.5 1.7 3.5 62 3.1 SSW 39 56 21 30 1014.0 1014.0 0.0
26/02:00am 11.1 2.9 4.8 65 2.9 SSW 37 52 20 28 1014.0 1014.0 0.0
26/01:30am 11.2 3.3 4.4 63 3.1 SW 35 48 19 26 1014.0 1014.0 0.0
26/01:11am 11.5 3.0 5.2 65 2.9 SW 39 59 21 32 1013.9 1013.9 0.0
26/01:00am 11.3 3.6 5.2 66 2.8 SSW 35 50 19 27 1013.9 1013.9 0.0
26/12:30am 11.5 2.4 5.8 68 2.7 SSW 43 56 23 30 1013.7 1013.7 0.0
26/12:00am 11.1 3.2 6.3 72 2.3 SSW 37 52 20 28 1013.5 1013.5 0.0
 
Date/Time
EST
Temp
°C
App
Temp
°C
Dew
Point
Rel
Hum
%
Delta-T
°C
Wind Press
QNH
hPa
Press
MSL
hPa
Rain
since 9 am
mm
Dir
 
Spd
km/h
Gust
km/h
Spd
kts
Gust
kts
25/11:30pm 10.8 4.7 6.6 75 2.0 S 28 43 15 23 1013.6 1013.6 0.0
25/11:00pm 10.9 4.8 6.6 75 2.0 S 28 46 15 25 1013.7 1013.7 0.0
25/10:30pm 10.7 4.6 6.5 75 2.0 S 28 46 15 25 1013.7 1013.7 0.0
25/10:25pm 10.7 4.6 6.5 75 2.0 S 28 46 15 25 1013.6 1013.6 0.0
25/10:00pm 10.8 4.0 6.7 76 1.9 S 32 41 17 22 1013.6 1013.6 0.0
25/09:30pm 10.8 4.0 7.1 78 1.8 S 32 43 17 23 1013.4 1013.4 0.0
25/09:00pm 10.5 3.6 7.2 80 1.6 S 33 48 18 26 1013.3 1013.3 0.0
25/08:52pm 10.5 4.2 7.2 80 1.6 S 30 48 16 26 1013.2 1013.2 0.0
25/08:30pm 10.9 3.7 7.6 80 1.6 S 35 50 19 27 1013.1 1013.1 0.0
25/08:12pm 10.9 3.7 7.8 81 1.5 SSW 35 54 19 29 1012.9 1012.9 0.0
25/08:00pm 11.2 4.5 7.3 77 1.9 S 32 43 17 23 1012.9 1012.9 0.0
25/07:30pm 11.3 4.8 6.6 73 2.2 S 30 43 16 23 1012.7 1012.7 0.0
25/07:22pm 11.4 4.3 6.5 72 2.3 S 33 52 18 28 1012.7 1012.7 0.0
25/07:00pm 11.7 3.8 6.4 70 2.5 SSW 37 52 20 28 1012.3 1012.3 0.0
25/06:30pm 11.5 3.7 6.6 72 2.3 SSW 37 50 20 27 1012.0 1012.0 0.0
25/06:00pm 11.7 2.8 7.0 73 2.3 SSW 43 57 23 31 1011.5 1011.4 0.0
25/05:30pm 11.7 3.5 6.6 71 2.4 S 39 50 21 27 1011.1 1011.0 0.0
25/05:06pm 11.8 2.9 6.7 71 2.4 SSW 43 61 23 33 1010.9 1010.8 0.0
25/05:00pm 11.9 2.8 6.6 70 2.5 SSW 44 61 24 33 1010.7 1010.6 0.0
25/04:30pm 12.3 3.2 7.0 70 2.6 SSW 44 61 24 33 1010.5 1010.4 0.0
25/04:00pm 12.4 3.5 7.5 72 2.4 SSW 44 59 24 32 1010.3 1010.2 0.0
25/03:30pm 12.9 4.3 8.0 72 2.4 SSW 43 59 23 32 1010.1 1010.0 0.0
25/03:08pm 13.0 5.3 8.5 74 2.3 SSW 39 57 21 31 1009.9 1009.8 0.0
25/03:00pm 13.1 4.6 8.6 74 2.3 SSW 43 54 23 29 1009.9 1009.8 0.0
25/02:30pm 13.2 4.8 8.9 75 2.2 SSW 43 52 23 28 1009.6 1009.5 0.0
25/02:00pm 13.3 6.1 9.2 76 2.1 SSW 37 52 20 28 1009.4 1009.3 0.0
25/01:30pm 13.4 6.3 9.5 77 2.0 SSW 37 48 20 26 1009.4 1009.3 0.0
25/01:00pm 13.8 6.8 9.8 77 2.1 SSW 37 46 20 25 1009.3 1009.2 0.0
25/12:30pm 13.5 7.1 9.4 76 2.1 SSW 33 46 18 25 1009.3 1009.2 0.0
25/12:00pm 13.8 7.5 9.0 73 2.4 SSW 32 41 17 22 1009.3 1009.2 0.0
25/11:30am 13.9 8.4 9.1 73 2.4 SSW 28 39 15 21 1009.2 1009.1 0.0
25/11:00am 13.8 9.2 9.6 76 2.2 S 24 33 13 18 1009.1 1009.0 0.0
25/10:30am 13.1 6.9 9.2 77 2.0 SSW 32 44 17 24 1008.9 1008.8 0.0
25/10:00am 13.4 7.9 9.3 76 2.1 SSW 28 35 15 19 1008.8 1008.7 0.0
25/09:30am 13.1 7.8 8.6 74 2.3 S 26 37 14 20 1008.6 1008.5 0.0
25/09:00am 12.8 7.0 8.1 73 2.3 S 28 39 15 21 1008.4 1008.3 2.2
25/08:30am 12.4 7.7 7.7 73 2.3 S 22 30 12 16 1008.2 1008.1 2.2
25/08:00am 11.9 6.8 7.6 75 2.1 S 24 33 13 18 1007.9 1007.8 2.2
25/07:30am 11.3 5.9 8.0 80 1.6 S 26 35 14 19 1007.6 1007.5 2.2
25/07:00am 11.3 5.5 8.0 80 1.6 S 28 39 15 21 1007.3 1007.2 2.2
25/06:30am 11.4 5.6 8.1 80 1.6 S 28 37 15 20 1007.1 1007.0 2.2
25/06:00am 11.7 7.2 8.4 80 1.6 S 22 32 12 17 1006.7 1006.6 2.2
25/05:30am 12.0 7.9 8.8 81 1.6 S 20 28 11 15 1006.5 1006.4 2.2
25/05:00am 12.1 7.4 9.1 82 1.5 S 24 32 13 17 1006.3 1006.2 2.2
25/04:30am 11.9 7.9 8.9 82 1.5 S 20 28 11 15 1006.0 1005.9 2.2
25/04:00am 11.9 8.1 8.9 82 1.5 S 19 26 10 14 1005.8 1005.7 2.2
25/03:30am 12.2 7.1 9.2 82 1.5 S 26 37 14 20 1005.5 1005.5 2.2
25/03:00am 12.0 8.0 9.2 83 1.4 S 20 30 11 16 1005.3 1005.3 2.2
25/02:30am 12.3 7.9 9.1 81 1.6 S 22 30 12 16 1005.4 1005.4 2.2
25/02:00am 12.5 7.0 9.3 81 1.6 S 28 39 15 21 1005.4 1005.4 2.2
25/01:30am 12.4 7.7 9.2 81 1.6 S 24 32 13 17 1005.4 1005.4 2.2
25/01:00am 12.4 6.8 8.7 78 1.9 S 28 39 15 21 1005.2 1005.2 2.2
25/12:30am 12.5 6.9 8.8 78 1.9 S 28 39 15 21 1005.2 1005.2 2.2
25/12:00am 12.4 7.7 9.1 80 1.7 S 24 32 13 17 1005.1 1005.1 2.2
 
Date/Time
EST
Temp
°C
App
Temp
°C
Dew
Point
Rel
Hum
%
Delta-T
°C
Wind Press
QNH
hPa
Press
MSL
hPa
Rain
since 9 am
mm
Dir
 
Spd
km/h
Gust
km/h
Spd
kts
Gust
kts
24/11:30pm 12.6 8.7 9.6 82 1.5 S 20 30 11 16 1005.1 1005.1 2.2
24/11:00pm 12.6 8.0 9.8 83 1.4 S 24 32 13 17 1005.0 1005.0 2.2
24/10:30pm 12.7 8.2 9.9 83 1.4 SSW 24 33 13 18 1005.0 1005.0 2.2
24/10:00pm 12.8 7.6 10.2 84 1.4 S 28 43 15 23 1004.8 1004.8 2.2
24/09:30pm 12.9 7.8 10.6 86 1.2 S 28 39 15 21 1004.6 1004.6 2.2
24/09:00pm 13.0 7.5 10.7 86 1.2 S 30 39 16 21 1004.4 1004.4 2.2
24/08:30pm 13.2 8.2 11.1 87 1.1 SSW 28 39 15 21 1004.2 1004.2 2.2
24/08:00pm 13.2 8.3 11.3 88 1.0 SSW 28 37 15 20 1004.0 1004.0 2.2
24/07:30pm 13.2 8.3 11.3 88 1.0 SSW 28 37 15 20 1004.0 1004.0 2.2
24/07:00pm 13.4 8.9 11.5 88 1.0 SSW 26 35 14 19 1003.7 1003.7 2.2
24/06:30pm 13.4 9.3 11.3 87 1.1 SSW 24 30 13 16 1003.3 1003.3 2.2
24/06:00pm 13.4 10.6 11.5 88 1.0 SSW 17 24 9 13 1002.8 1002.8 2.2
24/05:30pm 13.4 10.6 11.5 88 1.0 SSW 17 22 9 12 1002.4 1002.4 2.2
24/05:00pm 13.6 10.9 11.8 89 1.0 SSW 17 20 9 11 1002.3 1002.3 2.2
24/04:30pm 13.8 12.0 12.0 89 1.0 SSW 13 19 7 10 1002.2 1002.2 2.2
24/04:00pm 13.7 12.2 11.9 89 1.0 SSW 11 17 6 9 1002.3 1002.3 2.2

Other Formats:

Comma delimited format used in spreadsheet applications
http://www.bom.gov.au/fwo/IDT60801/IDT60801.95954.axf

JavaScript Object Notation format (JSON) in row-major order
http://www.bom.gov.au/fwo/IDT60801/IDT60801.95954.json